sensor_id;sensor_type;location;lat;lon;timestamp;P1;P2;P0
49686;PMS5003;36064;38.180;-122.272;2023-07-28T00:00:00;11.0;9.0;
49686;PMS5003;36064;38.180;-122.272;2023-07-28T00:05:00;10.6;9.6;
49686;PMS5003;36064;38.180;-122.272;2023-07-28T00:10:00;10.0;8.2;
49686;PMS5003;36064;38.180;-122.272;2023-07-28T00:15:00;9.2;8.4;
49686;PMS5003;36064;38.180;-122.272;2023-07-28T00:20:00;13.4;10.6;
49686;PMS5003;36064;38.180;-122.272;2023-07-28T00:25:00;7.8;6.8;
49686;PMS5003;36064;38.180;-122.272;2023-07-28T00:30:00;10.0;8.4;
49686;PMS5003;36064;38.180;-122.272;2023-07-28T00:35:01;9.8;9.0;
49686;PMS5003;36064;38.180;-122.272;2023-07-28T00:40:00;11.4;8.6;
49686;PMS5003;36064;38.180;-122.272;2023-07-28T00:45:00;14.4;11.2;
49686;PMS5003;36064;38.180;-122.272;2023-07-28T00:50:00;14.8;12.2;
49686;PMS5003;36064;38.180;-122.272;2023-07-28T00:55:01;9.6;8.8;
49686;PMS5003;36064;38.180;-122.272;2023-07-28T01:00:01;9.0;8.6;
49686;PMS5003;36064;38.180;-122.272;2023-07-28T01:05:01;13.2;11.4;
49686;PMS5003;36064;38.180;-122.272;2023-07-28T01:10:02;12.2;11.0;
49686;PMS5003;36064;38.180;-122.272;2023-07-28T01:15:00;11.4;10.6;
49686;PMS5003;36064;38.180;-122.272;2023-07-28T01:20:01;10.6;9.6;
49686;PMS5003;36064;38.180;-122.272;2023-07-28T01:25:03;9.2;8.4;
49686;PMS5003;36064;38.180;-122.272;2023-07-28T01:30:00;7.4;7.4;
49686;PMS5003;36064;38.180;-122.272;2023-07-28T01:35:00;11.0;9.2;
49686;PMS5003;36064;38.180;-122.272;2023-07-28T01:40:01;11.6;8.6;
49686;PMS5003;36064;38.180;-122.272;2023-07-28T01:45:00;10.4;8.2;
49686;PMS5003;36064;38.180;-122.272;2023-07-28T01:50:00;10.4;7.2;
49686;PMS5003;36064;38.180;-122.272;2023-07-28T01:55:00;8.4;7.4;
49686;PMS5003;36064;38.180;-122.272;2023-07-28T02:00:00;11.8;10.2;
49686;PMS5003;36064;38.180;-122.272;2023-07-28T02:05:01;8.0;7.2;
49686;PMS5003;36064;38.180;-122.272;2023-07-28T02:10:00;9.6;9.0;
49686;PMS5003;36064;38.180;-122.272;2023-07-28T02:15:00;8.8;8.0;
49686;PMS5003;36064;38.180;-122.272;2023-07-28T02:20:01;6.6;6.6;
49686;PMS5003;36064;38.180;-122.272;2023-07-28T02:25:00;10.0;8.4;
49686;PMS5003;36064;38.180;-122.272;2023-07-28T02:30:00;8.8;7.2;
49686;PMS5003;36064;38.180;-122.272;2023-07-28T02:35:00;7.8;7.0;
49686;PMS5003;36064;38.180;-122.272;2023-07-28T02:40:00;6.8;6.6;
49686;PMS5003;36064;38.180;-122.272;2023-07-28T02:45:00;8.0;7.2;
49686;PMS5003;36064;38.180;-122.272;2023-07-28T02:50:00;8.2;6.4;
49686;PMS5003;36064;38.180;-122.272;2023-07-28T02:55:00;7.2;6.6;
49686;PMS5003;36064;38.180;-122.272;2023-07-28T03:00:00;11.2;9.0;
49686;PMS5003;36064;38.180;-122.272;2023-07-28T03:05:00;6.8;6.0;
49686;PMS5003;36064;38.180;-122.272;2023-07-28T03:10:01;10.4;8.4;
49686;PMS5003;36064;38.180;-122.272;2023-07-28T03:15:00;8.2;8.4;
49686;PMS5003;36064;38.180;-122.272;2023-07-28T03:20:00;11.4;8.0;
49686;PMS5003;36064;38.180;-122.272;2023-07-28T03:25:00;7.2;7.0;
49686;PMS5003;36064;38.180;-122.272;2023-07-28T03:30:00;7.0;5.2;
49686;PMS5003;36064;38.180;-122.272;2023-07-28T03:35:00;10.8;6.0;
49686;PMS5003;36064;38.180;-122.272;2023-07-28T03:40:00;11.8;8.0;
49686;PMS5003;36064;38.180;-122.272;2023-07-28T03:45:00;8.2;7.0;
49686;PMS5003;36064;38.180;-122.272;2023-07-28T03:50:00;9.2;6.6;
49686;PMS5003;36064;38.180;-122.272;2023-07-28T03:55:00;8.8;6.4;
49686;PMS5003;36064;38.180;-122.272;2023-07-28T04:00:00;6.4;5.6;
49686;PMS5003;36064;38.180;-122.272;2023-07-28T04:05:00;12.4;8.2;
49686;PMS5003;36064;38.180;-122.272;2023-07-28T04:10:00;8.2;8.2;
49686;PMS5003;36064;38.180;-122.272;2023-07-28T04:15:00;7.8;6.0;
49686;PMS5003;36064;38.180;-122.272;2023-07-28T04:20:00;8.4;6.2;
49686;PMS5003;36064;38.180;-122.272;2023-07-28T04:25:00;9.6;7.0;
49686;PMS5003;36064;38.180;-122.272;2023-07-28T04:30:00;7.4;6.2;
49686;PMS5003;36064;38.180;-122.272;2023-07-28T04:35:00;8.6;7.6;
49686;PMS5003;36064;38.180;-122.272;2023-07-28T04:40:00;8.2;6.8;
49686;PMS5003;36064;38.180;-122.272;2023-07-28T04:45:00;11.4;8.4;
49686;PMS5003;36064;38.180;-122.272;2023-07-28T04:50:00;10.8;8.6;
49686;PMS5003;36064;38.180;-122.272;2023-07-28T04:55:00;7.4;6.8;
49686;PMS5003;36064;38.180;-122.272;2023-07-28T05:00:00;8.2;8.4;
49686;PMS5003;36064;38.180;-122.272;2023-07-28T05:05:00;7.0;5.6;
49686;PMS5003;36064;38.180;-122.272;2023-07-28T05:10:00;9.4;7.8;
49686;PMS5003;36064;38.180;-122.272;2023-07-28T05:15:00;10.4;10.0;
49686;PMS5003;36064;38.180;-122.272;2023-07-28T05:20:00;10.2;9.2;
49686;PMS5003;36064;38.180;-122.272;2023-07-28T05:25:00;8.8;8.0;
49686;PMS5003;36064;38.180;-122.272;2023-07-28T05:30:00;10.8;9.6;
49686;PMS5003;36064;38.180;-122.272;2023-07-28T05:35:00;10.8;10.0;
49686;PMS5003;36064;38.180;-122.272;2023-07-28T05:40:00;8.8;10.0;
49686;PMS5003;36064;38.180;-122.272;2023-07-28T05:45:00;7.4;5.8;
49686;PMS5003;36064;38.180;-122.272;2023-07-28T05:50:00;10.72;8.88;
49686;PMS5003;36064;38.180;-122.272;2023-07-28T05:55:00;10.0;8.8;
49686;PMS5003;36064;38.180;-122.272;2023-07-28T06:00:00;11.8;10.2;
49686;PMS5003;36064;38.180;-122.272;2023-07-28T06:05:00;9.0;10.2;
49686;PMS5003;36064;38.180;-122.272;2023-07-28T06:10:00;10.6;9.0;
49686;PMS5003;36064;38.180;-122.272;2023-07-28T06:15:00;8.0;7.0;
49686;PMS5003;36064;38.180;-122.272;2023-07-28T06:20:00;13.8;10.0;
49686;PMS5003;36064;38.180;-122.272;2023-07-28T06:25:00;10.4;7.4;
49686;PMS5003;36064;38.180;-122.272;2023-07-28T06:30:00;8.2;7.8;
49686;PMS5003;36064;38.180;-122.272;2023-07-28T06:35:00;8.8;8.2;
49686;PMS5003;36064;38.180;-122.272;2023-07-28T06:40:00;10.0;8.2;
49686;PMS5003;36064;38.180;-122.272;2023-07-28T06:45:00;12.8;10.4;
49686;PMS5003;36064;38.180;-122.272;2023-07-28T06:50:00;9.2;8.0;
49686;PMS5003;36064;38.180;-122.272;2023-07-28T06:55:00;8.8;8.0;
49686;PMS5003;36064;38.180;-122.272;2023-07-28T07:00:00;9.4;6.0;
49686;PMS5003;36064;38.180;-122.272;2023-07-28T07:05:00;13.6;9.0;
49686;PMS5003;36064;38.180;-122.272;2023-07-28T07:10:00;8.4;7.0;
49686;PMS5003;36064;38.180;-122.272;2023-07-28T07:15:00;7.2;6.2;
49686;PMS5003;36064;38.180;-122.272;2023-07-28T07:20:00;8.0;7.2;
49686;PMS5003;36064;38.180;-122.272;2023-07-28T07:25:00;9.6;8.8;
49686;PMS5003;36064;38.180;-122.272;2023-07-28T07:30:00;11.6;9.4;
49686;PMS5003;36064;38.180;-122.272;2023-07-28T07:35:00;10.0;8.8;
49686;PMS5003;36064;38.180;-122.272;2023-07-28T07:40:00;8.0;6.4;
49686;PMS5003;36064;38.180;-122.272;2023-07-28T07:45:00;9.4;6.6;
49686;PMS5003;36064;38.180;-122.272;2023-07-28T07:50:00;10.6;7.4;
49686;PMS5003;36064;38.180;-122.272;2023-07-28T07:55:00;8.0;6.2;
49686;PMS5003;36064;38.180;-122.272;2023-07-28T08:00:00;8.8;7.0;
49686;PMS5003;36064;38.180;-122.272;2023-07-28T08:05:00;9.2;9.0;
49686;PMS5003;36064;38.180;-122.272;2023-07-28T08:10:00;11.8;9.2;
49686;PMS5003;36064;38.180;-122.272;2023-07-28T08:15:00;8.6;6.6;
49686;PMS5003;36064;38.180;-122.272;2023-07-28T08:20:00;16.0;13.2;
49686;PMS5003;36064;38.180;-122.272;2023-07-28T08:25:00;13.2;9.2;
49686;PMS5003;36064;38.180;-122.272;2023-07-28T08:30:00;8.8;6.8;
49686;PMS5003;36064;38.180;-122.272;2023-07-28T08:35:00;8.4;6.8;
49686;PMS5003;36064;38.180;-122.272;2023-07-28T08:40:00;10.8;9.4;
49686;PMS5003;36064;38.180;-122.272;2023-07-28T08:45:00;11.6;8.6;
49686;PMS5003;36064;38.180;-122.272;2023-07-28T08:50:00;11.2;8.2;
49686;PMS5003;36064;38.180;-122.272;2023-07-28T08:55:00;11.8;8.0;
49686;PMS5003;36064;38.180;-122.272;2023-07-28T09:00:06;9.6;8.6;
49686;PMS5003;36064;38.180;-122.272;2023-07-28T09:05:02;8.2;7.4;
49686;PMS5003;36064;38.180;-122.272;2023-07-28T09:10:00;6.4;6.4;
49686;PMS5003;36064;38.180;-122.272;2023-07-28T09:15:00;7.4;7.0;
49686;PMS5003;36064;38.180;-122.272;2023-07-28T09:20:00;9.4;7.8;
49686;PMS5003;36064;38.180;-122.272;2023-07-28T09:25:01;12.6;11.0;
49686;PMS5003;36064;38.180;-122.272;2023-07-28T09:30:00;11.6;8.0;
49686;PMS5003;36064;38.180;-122.272;2023-07-28T09:35:08;9.4;8.6;
49686;PMS5003;36064;38.180;-122.272;2023-07-28T09:40:00;12.4;10.0;
49686;PMS5003;36064;38.180;-122.272;2023-07-28T09:45:00;12.6;10.2;
49686;PMS5003;36064;38.180;-122.272;2023-07-28T09:50:01;11.2;9.6;
49686;PMS5003;36064;38.180;-122.272;2023-07-28T09:55:00;10.0;8.4;
49686;PMS5003;36064;38.180;-122.272;2023-07-28T10:00:00;8.6;7.4;
49686;PMS5003;36064;38.180;-122.272;2023-07-28T10:05:01;9.2;8.4;
49686;PMS5003;36064;38.180;-122.272;2023-07-28T10:10:00;11.8;9.4;
49686;PMS5003;36064;38.180;-122.272;2023-07-28T10:15:01;8.6;7.6;
49686;PMS5003;36064;38.180;-122.272;2023-07-28T10:20:02;10.8;9.6;
49686;PMS5003;36064;38.180;-122.272;2023-07-28T10:25:01;9.6;7.4;
49686;PMS5003;36064;38.180;-122.272;2023-07-28T10:30:01;11.6;9.6;
49686;PMS5003;36064;38.180;-122.272;2023-07-28T10:35:00;12.6;11.0;
49686;PMS5003;36064;38.180;-122.272;2023-07-28T10:45:00;9.6;8.2;
49686;PMS5003;36064;38.180;-122.272;2023-07-28T10:50:02;8.8;8.0;
49686;PMS5003;36064;38.180;-122.272;2023-07-28T10:55:00;8.0;7.6;
49686;PMS5003;36064;38.180;-122.272;2023-07-28T11:00:00;13.6;10.4;
49686;PMS5003;36064;38.180;-122.272;2023-07-28T11:05:05;10.8;9.2;
49686;PMS5003;36064;38.180;-122.272;2023-07-28T11:10:01;11.2;8.8;
49686;PMS5003;36064;38.180;-122.272;2023-07-28T11:15:00;12.8;10.8;
49686;PMS5003;36064;38.180;-122.272;2023-07-28T11:20:00;11.2;11.2;
49686;PMS5003;36064;38.180;-122.272;2023-07-28T11:25:00;9.4;7.8;
49686;PMS5003;36064;38.180;-122.272;2023-07-28T11:30:01;9.0;8.2;
49686;PMS5003;36064;38.180;-122.272;2023-07-28T11:35:02;10.0;8.0;
49686;PMS5003;36064;38.180;-122.272;2023-07-28T11:40:01;10.4;9.0;
49686;PMS5003;36064;38.180;-122.272;2023-07-28T11:45:00;13.0;10.6;
49686;PMS5003;36064;38.180;-122.272;2023-07-28T11:50:01;10.4;8.8;
49686;PMS5003;36064;38.180;-122.272;2023-07-28T11:55:00;15.8;13.6;
49686;PMS5003;36064;38.180;-122.272;2023-07-28T12:00:00;8.6;8.0;
49686;PMS5003;36064;38.180;-122.272;2023-07-28T12:05:00;9.0;8.4;
49686;PMS5003;36064;38.180;-122.272;2023-07-28T12:10:02;10.2;8.6;
49686;PMS5003;36064;38.180;-122.272;2023-07-28T12:15:00;6.4;6.0;
49686;PMS5003;36064;38.180;-122.272;2023-07-28T12:20:01;10.8;10.4;
49686;PMS5003;36064;38.180;-122.272;2023-07-28T12:25:00;7.4;6.6;
49686;PMS5003;36064;38.180;-122.272;2023-07-28T12:30:00;10.0;8.8;
49686;PMS5003;36064;38.180;-122.272;2023-07-28T12:35:01;8.6;6.6;
49686;PMS5003;36064;38.180;-122.272;2023-07-28T12:40:00;9.0;7.6;
49686;PMS5003;36064;38.180;-122.272;2023-07-28T12:45:00;9.8;8.6;
49686;PMS5003;36064;38.180;-122.272;2023-07-28T12:50:00;8.4;8.0;
49686;PMS5003;36064;38.180;-122.272;2023-07-28T12:55:00;7.8;6.0;
49686;PMS5003;36064;38.180;-122.272;2023-07-28T13:00:00;9.2;6.8;
49686;PMS5003;36064;38.180;-122.272;2023-07-28T13:05:00;6.6;5.8;
49686;PMS5003;36064;38.180;-122.272;2023-07-28T13:10:00;9.6;7.2;
49686;PMS5003;36064;38.180;-122.272;2023-07-28T13:15:00;10.0;7.6;
49686;PMS5003;36064;38.180;-122.272;2023-07-28T13:20:00;5.6;5.6;
49686;PMS5003;36064;38.180;-122.272;2023-07-28T13:25:00;6.2;5.8;
49686;PMS5003;36064;38.180;-122.272;2023-07-28T13:30:00;7.4;6.4;
49686;PMS5003;36064;38.180;-122.272;2023-07-28T13:35:00;8.4;7.6;
49686;PMS5003;36064;38.180;-122.272;2023-07-28T13:40:00;6.6;5.6;
49686;PMS5003;36064;38.180;-122.272;2023-07-28T13:45:00;10.2;9.2;
49686;PMS5003;36064;38.180;-122.272;2023-07-28T13:50:00;11.0;9.8;
49686;PMS5003;36064;38.180;-122.272;2023-07-28T13:55:00;12.6;9.8;
49686;PMS5003;36064;38.180;-122.272;2023-07-28T14:00:00;8.4;7.2;
49686;PMS5003;36064;38.180;-122.272;2023-07-28T14:05:00;8.8;8.2;
49686;PMS5003;36064;38.180;-122.272;2023-07-28T14:10:00;9.0;8.4;
49686;PMS5003;36064;38.180;-122.272;2023-07-28T14:15:00;8.0;7.2;
49686;PMS5003;36064;38.180;-122.272;2023-07-28T14:20:00;7.4;7.0;
49686;PMS5003;36064;38.180;-122.272;2023-07-28T14:25:00;11.2;9.6;
49686;PMS5003;36064;38.180;-122.272;2023-07-28T14:30:00;7.0;7.0;
49686;PMS5003;36064;38.180;-122.272;2023-07-28T14:35:00;8.2;8.2;
49686;PMS5003;36064;38.180;-122.272;2023-07-28T14:40:00;7.4;6.8;
49686;PMS5003;36064;38.180;-122.272;2023-07-28T14:45:00;7.0;6.6;
49686;PMS5003;36064;38.180;-122.272;2023-07-28T14:50:00;9.2;6.4;
49686;PMS5003;36064;38.180;-122.272;2023-07-28T14:55:00;7.6;7.2;
49686;PMS5003;36064;38.180;-122.272;2023-07-28T15:00:00;9.6;9.2;
49686;PMS5003;36064;38.180;-122.272;2023-07-28T15:05:00;7.4;6.6;
49686;PMS5003;36064;38.180;-122.272;2023-07-28T15:10:00;6.0;4.8;
49686;PMS5003;36064;38.180;-122.272;2023-07-28T15:15:00;7.0;4.8;
49686;PMS5003;36064;38.180;-122.272;2023-07-28T15:20:00;6.0;6.0;
49686;PMS5003;36064;38.180;-122.272;2023-07-28T15:25:01;5.6;5.4;
49686;PMS5003;36064;38.180;-122.272;2023-07-28T15:30:00;7.4;7.0;
49686;PMS5003;36064;38.180;-122.272;2023-07-28T15:35:00;7.2;6.2;
49686;PMS5003;36064;38.180;-122.272;2023-07-28T15:40:00;5.4;5.4;
49686;PMS5003;36064;38.180;-122.272;2023-07-28T15:45:00;5.0;4.8;
49686;PMS5003;36064;38.180;-122.272;2023-07-28T15:50:00;7.0;6.4;
49686;PMS5003;36064;38.180;-122.272;2023-07-28T15:55:00;5.6;5.4;
49686;PMS5003;36064;38.180;-122.272;2023-07-28T16:00:00;5.0;5.0;
49686;PMS5003;36064;38.180;-122.272;2023-07-28T16:05:00;5.0;4.2;
49686;PMS5003;36064;38.180;-122.272;2023-07-28T16:10:00;6.8;6.2;
49686;PMS5003;36064;38.180;-122.272;2023-07-28T16:15:00;4.6;4.4;
49686;PMS5003;36064;38.180;-122.272;2023-07-28T16:20:00;6.0;4.8;
49686;PMS5003;36064;38.180;-122.272;2023-07-28T16:25:00;6.2;6.0;
49686;PMS5003;36064;38.180;-122.272;2023-07-28T16:30:02;6.0;5.2;
49686;PMS5003;36064;38.180;-122.272;2023-07-28T16:35:00;7.8;6.2;
49686;PMS5003;36064;38.180;-122.272;2023-07-28T16:40:00;5.2;4.0;
49686;PMS5003;36064;38.180;-122.272;2023-07-28T16:45:00;4.2;3.8;
49686;PMS5003;36064;38.180;-122.272;2023-07-28T16:50:00;7.4;6.2;
49686;PMS5003;36064;38.180;-122.272;2023-07-28T16:55:01;5.8;4.8;
49686;PMS5003;36064;38.180;-122.272;2023-07-28T17:00:00;7.2;4.4;
49686;PMS5003;36064;38.180;-122.272;2023-07-28T17:05:00;6.4;3.8;
49686;PMS5003;36064;38.180;-122.272;2023-07-28T17:10:00;3.6;3.2;
49686;PMS5003;36064;38.180;-122.272;2023-07-28T17:15:00;6.8;6.0;
49686;PMS5003;36064;38.180;-122.272;2023-07-28T17:20:00;4.8;3.6;
49686;PMS5003;36064;38.180;-122.272;2023-07-28T17:25:00;5.8;4.4;
49686;PMS5003;36064;38.180;-122.272;2023-07-28T17:30:00;5.8;4.2;
49686;PMS5003;36064;38.180;-122.272;2023-07-28T17:35:00;2.8;2.8;
49686;PMS5003;36064;38.180;-122.272;2023-07-28T17:40:00;4.0;3.4;
49686;PMS5003;36064;38.180;-122.272;2023-07-28T17:45:00;4.4;4.0;
49686;PMS5003;36064;38.180;-122.272;2023-07-28T17:50:01;3.8;3.0;
49686;PMS5003;36064;38.180;-122.272;2023-07-28T17:55:00;4.0;3.0;
49686;PMS5003;36064;38.180;-122.272;2023-07-28T18:00:00;5.0;3.8;
49686;PMS5003;36064;38.180;-122.272;2023-07-28T18:05:00;4.2;4.0;
49686;PMS5003;36064;38.180;-122.272;2023-07-28T18:10:00;3.8;3.0;
49686;PMS5003;36064;38.180;-122.272;2023-07-28T18:15:00;4.4;2.8;
49686;PMS5003;36064;38.180;-122.272;2023-07-28T18:20:00;6.0;5.6;
49686;PMS5003;36064;38.180;-122.272;2023-07-28T18:25:00;3.8;3.8;
49686;PMS5003;36064;38.180;-122.272;2023-07-28T18:30:00;4.0;4.0;
49686;PMS5003;36064;38.180;-122.272;2023-07-28T18:35:01;1.2;1.2;
49686;PMS5003;36064;38.180;-122.272;2023-07-28T18:40:00;4.4;4.0;
49686;PMS5003;36064;38.180;-122.272;2023-07-28T18:45:00;4.2;3.6;
49686;PMS5003;36064;38.180;-122.272;2023-07-28T18:50:00;4.2;3.4;
49686;PMS5003;36064;38.180;-122.272;2023-07-28T18:55:00;2.8;2.8;
49686;PMS5003;36064;38.180;-122.272;2023-07-28T19:00:00;3.2;3.0;
49686;PMS5003;36064;38.180;-122.272;2023-07-28T19:05:00;3.4;3.2;
49686;PMS5003;36064;38.180;-122.272;2023-07-28T19:10:00;4.0;3.6;
49686;PMS5003;36064;38.180;-122.272;2023-07-28T19:15:00;3.4;3.2;
49686;PMS5003;36064;38.180;-122.272;2023-07-28T19:20:01;3.4;2.6;
49686;PMS5003;36064;38.180;-122.272;2023-07-28T19:25:00;4.4;2.6;
49686;PMS5003;36064;38.180;-122.272;2023-07-28T19:30:00;4.0;2.8;
49686;PMS5003;36064;38.180;-122.272;2023-07-28T19:35:00;4.0;2.8;
49686;PMS5003;36064;38.180;-122.272;2023-07-28T19:40:00;4.2;4.0;
49686;PMS5003;36064;38.180;-122.272;2023-07-28T19:45:00;3.0;3.0;
49686;PMS5003;36064;38.180;-122.272;2023-07-28T19:50:00;2.8;2.8;
49686;PMS5003;36064;38.180;-122.272;2023-07-28T19:55:00;4.8;3.2;
49686;PMS5003;36064;38.180;-122.272;2023-07-28T20:00:00;4.8;2.2;
49686;PMS5003;36064;38.180;-122.272;2023-07-28T20:05:00;4.8;2.2;
49686;PMS5003;36064;38.180;-122.272;2023-07-28T20:10:00;3.4;3.0;
49686;PMS5003;36064;38.180;-122.272;2023-07-28T20:15:00;4.4;4.0;
49686;PMS5003;36064;38.180;-122.272;2023-07-28T20:20:00;3.4;3.2;
49686;PMS5003;36064;38.180;-122.272;2023-07-28T20:25:00;4.2;3.2;
49686;PMS5003;36064;38.180;-122.272;2023-07-28T20:30:00;4.0;3.6;
49686;PMS5003;36064;38.180;-122.272;2023-07-28T20:35:00;3.6;2.8;
49686;PMS5003;36064;38.180;-122.272;2023-07-28T20:40:00;5.22;5.03;
49686;PMS5003;36064;38.180;-122.272;2023-07-28T20:45:00;6.22;5.82;
49686;PMS5003;36064;38.180;-122.272;2023-07-28T20:50:00;4.4;4.0;
49686;PMS5003;36064;38.180;-122.272;2023-07-28T20:55:00;5.0;4.2;
49686;PMS5003;36064;38.180;-122.272;2023-07-28T21:00:00;4.2;4.0;
49686;PMS5003;36064;38.180;-122.272;2023-07-28T21:05:00;3.8;3.0;
49686;PMS5003;36064;38.180;-122.272;2023-07-28T21:10:00;4.0;4.0;
49686;PMS5003;36064;38.180;-122.272;2023-07-28T21:15:00;4.2;4.0;
49686;PMS5003;36064;38.180;-122.272;2023-07-28T21:20:00;5.0;4.4;
49686;PMS5003;36064;38.180;-122.272;2023-07-28T21:25:00;5.0;4.2;
49686;PMS5003;36064;38.180;-122.272;2023-07-28T21:30:00;3.8;3.6;
49686;PMS5003;36064;38.180;-122.272;2023-07-28T21:35:00;5.23;5.62;
49686;PMS5003;36064;38.180;-122.272;2023-07-28T21:40:00;5.4;4.6;
49686;PMS5003;36064;38.180;-122.272;2023-07-28T21:45:00;3.6;3.4;
49686;PMS5003;36064;38.180;-122.272;2023-07-28T21:50:00;5.0;3.8;
49686;PMS5003;36064;38.180;-122.272;2023-07-28T21:55:00;5.6;5.6;
49686;PMS5003;36064;38.180;-122.272;2023-07-28T22:00:00;7.8;5.0;
49686;PMS5003;36064;38.180;-122.272;2023-07-28T22:05:00;5.8;5.0;
49686;PMS5003;36064;38.180;-122.272;2023-07-28T22:10:00;4.4;5.0;
49686;PMS5003;36064;38.180;-122.272;2023-07-28T22:15:00;5.0;4.4;
49686;PMS5003;36064;38.180;-122.272;2023-07-28T22:20:01;4.6;3.4;
49686;PMS5003;36064;38.180;-122.272;2023-07-28T22:25:00;3.6;3.6;
49686;PMS5003;36064;38.180;-122.272;2023-07-28T22:30:00;5.4;4.4;
49686;PMS5003;36064;38.180;-122.272;2023-07-28T22:35:00;5.4;4.4;
49686;PMS5003;36064;38.180;-122.272;2023-07-28T22:40:00;6.2;4.4;
49686;PMS5003;36064;38.180;-122.272;2023-07-28T22:45:00;5.4;3.6;
49686;PMS5003;36064;38.180;-122.272;2023-07-28T22:50:00;5.2;4.0;
49686;PMS5003;36064;38.180;-122.272;2023-07-28T22:55:00;5.0;4.4;
49686;PMS5003;36064;38.180;-122.272;2023-07-28T23:00:00;5.0;3.6;
49686;PMS5003;36064;38.180;-122.272;2023-07-28T23:05:00;6.8;6.0;
49686;PMS5003;36064;38.180;-122.272;2023-07-28T23:10:00;4.6;3.8;
49686;PMS5003;36064;38.180;-122.272;2023-07-28T23:15:00;6.0;5.8;
49686;PMS5003;36064;38.180;-122.272;2023-07-28T23:20:00;4.2;4.2;
49686;PMS5003;36064;38.180;-122.272;2023-07-28T23:25:00;6.2;5.4;
49686;PMS5003;36064;38.180;-122.272;2023-07-28T23:30:00;4.2;3.0;
49686;PMS5003;36064;38.180;-122.272;2023-07-28T23:35:00;6.6;6.2;
49686;PMS5003;36064;38.180;-122.272;2023-07-28T23:40:00;5.6;4.2;
49686;PMS5003;36064;38.180;-122.272;2023-07-28T23:45:00;4.8;4.2;
49686;PMS5003;36064;38.180;-122.272;2023-07-28T23:50:00;6.4;5.8;
49686;PMS5003;36064;38.180;-122.272;2023-07-28T23:55:00;6.8;5.8;
